Accueil
METAR-TAF:

METAR-TAF

Aéroports :

Ciudad Obregón, Mexique

latitude: 27-24N, longitude: 109-50W, altitude: 62 m

Observation

Le bulletin a été fait il y a 10 heures et 28 minutes, à 01:40 UTC
Vent 3 kt de nord-ouest
Température 20°C
Humidité 56%
Pression 1013 hPa
Visibilité: 12.9 km
Ciel clair

METAR: MMCN 200140Z 32003KT 8SM SKC 20/11 A2992 RMK HZY

Heure: 05:08 (12:08 UTC)

Prévision

Le bulletin a été fait il y a 7 heures et 41 minutes, à 04:27 UTC
Prévision valable du 20 à 06 UTC au 21 à 06 UTC
Vent 5 kt de nord-ouest
Visibilité: 10 km
Ciel clair
A partir de 20 à 1800 UTC
Vent 12 kt de sud/sud-est
Visibilité: 10 km
Nuages épars à une hauteur de 25000 ft
A partir de 21 à 0500 UTC
Vent 5 kt de sud-est
Visibilité: 10 km
Ciel clair

TAF: MMCN 200427Z 2006/2106 32005KT P6SM SKC FM201800 16012KT P6SM SCT250 FM210500 14005KT P6SM SKC

Observations et prévisions météorologiques de plus de 4000 aéroports (messages METAR et TAF).

Les stations disponibles sont représentées par des disques jaunes et rouges sur la carte.

Passer la souris dessus pour voir le nom de la station.

Cliquer dessus pour voir les observations et prévisions météorologiques.

Pour changer de carte: cliquez sur les boutons verts avec une croix noire pour zoomer, sur le bouton vert avec un tiret pour effectuer un zoom arrière, ou sur les flèches vertes pour les cartes adjacentes.


METAR-TAF: